KMLI

Quad City International Airport

Airport
ICAO code
KMLI
Summary
ICAO Region
NAM
ICAO Territory
Location

Moline, Illinois,

Coordinates
41° 26' 56" N , 90° 30' 17" W
KCC
Metar
Observation
KMLI 310752Z AUTO 19017G29KT 10SM FEW065 OVC090 16/05 A2963 RMK AO2 PK WND 17030/0715 SLP031 T01610050
Station
Moline, Quad-City Airport
Date/Time
2023-03-31 07:52:00
Wind direction
190°
Wind speed
17 kts
Lowest cloud amount
few clouds
Temperature
16.1°C
Dew point
5°C
Humidity
47%
Weather condition
n/a

Description

Quad City International Airport is a public airport in Rock Island County, Illinois, 5 km south of the central business district of Moline.

Climatology

Humid continental climate (Köppen climate classification Dfa) - characterized by four seasons: cold, windy, snowy winters, mild springs, hot, humid summers, and crisp and relatively short autumns. Precipitation reaches its lowest in January and February and peaks in summer and latter half of spring.

Runways

Designator Length Width Surface Rops
5/23 1374 46 ASP Yes/Yes
13/31 2134 46 PEM Yes/Yes
9/27 3049 46 PEM Yes/Yes

Airport map

Aerial View

SKYbrary Partners:

Safety knowledge contributed by: